createdAt,value
2019-02-07T00:02:12.768Z,6.07
2019-02-07T00:04:42.423Z,7.28
2019-02-07T00:07:12.684Z,6.97
2019-02-07T00:09:42.341Z,7.40
2019-02-07T00:12:12.256Z,7.50
2019-02-07T00:14:41.895Z,7.60
2019-02-07T00:17:12.244Z,6.93
2019-02-07T00:19:41.929Z,7.53
2019-02-07T00:22:11.869Z,8.53
2019-02-07T00:24:43.212Z,7.80
2019-02-07T00:27:12.951Z,8.48
2019-02-07T00:29:42.554Z,7.93
2019-02-07T00:32:12.138Z,8.10
2019-02-07T00:34:41.736Z,6.83
2019-02-07T00:37:11.349Z,8.47
2019-02-07T00:39:40.934Z,6.80
2019-02-07T00:42:10.547Z,6.10
2019-02-07T00:44:50.541Z,7.33
2019-02-07T00:47:12.766Z,7.10
2019-02-07T00:49:42.796Z,5.97
2019-02-07T00:52:13.043Z,8.67
2019-02-07T00:54:42.820Z,7.03
2019-02-07T00:57:13.078Z,6.90
2019-02-07T00:59:42.796Z,6.03
2019-02-07T01:02:12.380Z,6.50
2019-02-07T01:04:41.980Z,6.30
2019-02-07T01:07:12.227Z,5.87
2019-02-07T01:09:42.687Z,4.60
2019-02-07T01:12:13.051Z,5.60
2019-02-07T01:14:42.759Z,5.63
2019-02-07T01:17:12.684Z,5.50
2019-02-07T01:19:43.036Z,4.93
2019-02-07T01:22:12.748Z,5.10
2019-02-07T01:24:43.011Z,4.57
2019-02-07T01:27:12.716Z,5.03
2019-02-07T01:29:42.368Z,5.60
2019-02-07T01:32:12.888Z,4.23
2019-02-07T01:34:43.236Z,4.50
2019-02-07T01:37:12.943Z,3.97
2019-02-07T01:39:42.536Z,5.23
2019-02-07T01:42:12.144Z,5.60
2019-02-07T01:44:41.767Z,6.40
2019-02-07T01:47:11.344Z,6.27
2019-02-07T01:49:40.944Z,7.40
2019-02-07T01:52:11.240Z,6.73
2019-02-07T01:54:40.952Z,7.33
2019-02-07T01:57:10.551Z,9.67
2019-02-07T01:59:41.156Z,7.07
2019-02-07T02:02:10.773Z,7.93
2019-02-07T02:04:40.359Z,7.43
2019-02-07T02:07:09.953Z,6.63
2019-02-07T02:09:40.220Z,7.60
2019-02-07T02:12:10.007Z,7.27
2019-02-07T02:14:40.576Z,6.53
2019-02-07T02:17:10.283Z,6.97
2019-02-07T02:19:39.919Z,6.73
2019-02-07T02:22:09.499Z,6.87
2019-02-07T02:24:39.143Z,6.53
2019-02-07T02:27:08.746Z,6.47
2019-02-07T02:29:38.750Z,5.80
2019-02-07T02:32:09.091Z,5.43
2019-02-07T02:34:38.722Z,5.87
2019-02-07T02:37:08.306Z,5.63
2019-02-07T02:39:37.911Z,5.43
2019-02-07T02:42:08.158Z,6.33
2019-02-07T02:44:37.873Z,5.53
2019-02-07T02:47:08.890Z,5.20
2019-02-07T02:49:38.587Z,5.03
2019-02-07T02:52:08.231Z,4.97
2019-02-07T02:54:47.654Z,5.07
2019-02-07T02:57:17.339Z,4.57
2019-02-07T02:59:46.948Z,5.10
2019-02-07T03:02:43.074Z,4.87
2019-02-07T03:05:28.958Z,5.03
2019-02-07T03:08:20.326Z,5.53
2019-02-07T03:11:21.555Z,4.63
2019-02-07T03:14:08.814Z,4.70
2019-02-07T03:16:56.424Z,5.10
2019-02-07T03:19:47.896Z,4.47
2019-02-07T03:22:45.568Z,5.93
2019-02-07T03:25:34.158Z,4.50
2019-02-07T03:28:28.903Z,4.30
2019-02-07T03:31:17.479Z,5.17
2019-02-07T03:34:00.422Z,4.40
2019-02-07T03:36:46.049Z,3.83
2019-02-07T03:39:44.561Z,4.80
2019-02-07T03:42:45.767Z,4.27
2019-02-07T03:45:33.891Z,4.17
2019-02-07T03:48:21.140Z,3.73
2019-02-07T03:51:09.747Z,4.63
2019-02-07T03:53:56.919Z,4.70
2019-02-07T03:57:00.869Z,3.90
2019-02-07T03:59:46.762Z,4.43
2019-02-07T04:02:35.346Z,4.50
2019-02-07T04:05:33.607Z,4.23
2019-02-07T04:08:30.783Z,3.97
2019-02-07T04:11:28.704Z,4.87
2019-02-07T04:14:26.199Z,5.07
2019-02-07T04:17:14.770Z,4.43
2019-02-07T04:19:53.271Z,5.20
2019-02-07T04:23:00.066Z,6.80
2019-02-07T04:25:49.228Z,4.90
2019-02-07T04:28:37.717Z,5.00
2019-02-07T04:31:36.271Z,5.03
2019-02-07T04:34:23.542Z,4.50
2019-02-07T04:37:12.130Z,4.20
2019-02-07T04:39:59.442Z,3.57
2019-02-07T04:42:51.111Z,4.40
2019-02-07T04:45:54.822Z,3.47
2019-02-07T04:48:53.052Z,3.80
2019-02-07T04:51:41.711Z,3.93
2019-02-07T04:54:29.480Z,3.43
2019-02-07T04:57:17.126Z,3.17
2019-02-07T05:00:02.213Z,3.83
2019-02-07T05:03:02.846Z,3.10
2019-02-07T05:05:55.024Z,3.30
2019-02-07T05:08:49.511Z,4.08
2019-02-07T05:11:38.135Z,4.10
2019-02-07T05:14:26.706Z,3.93
2019-02-07T05:17:09.883Z,3.90
2019-02-07T05:20:16.534Z,3.70
2019-02-07T05:23:04.495Z,3.87
2019-02-07T05:25:56.462Z,4.58
2019-02-07T05:28:37.061Z,3.57
2019-02-07T05:31:24.535Z,3.60
2019-02-07T05:34:04.643Z,3.73
2019-02-07T05:37:02.881Z,4.30
2019-02-07T05:39:50.247Z,3.87
2019-02-07T05:42:37.540Z,3.40
2019-02-07T05:45:29.095Z,3.50
2019-02-07T05:48:17.678Z,4.10
2019-02-07T05:51:18.402Z,4.15
2019-02-07T05:54:05.594Z,4.97
2019-02-07T05:56:47.622Z,4.27
2019-02-07T05:59:36.195Z,4.27
2019-02-07T06:02:24.989Z,3.93
2019-02-07T06:05:14.300Z,3.60
2019-02-07T06:08:08.889Z,3.90
2019-02-07T06:10:56.047Z,3.93
2019-02-07T06:13:54.510Z,4.43
2019-02-07T06:17:02.819Z,3.90
2019-02-07T06:19:51.046Z,5.13
2019-02-07T06:22:47.705Z,3.72
2019-02-07T06:25:37.062Z,2.93
2019-02-07T06:28:35.310Z,3.27
2019-02-07T06:31:13.459Z,3.63
2019-02-07T06:34:07.593Z,3.23
2019-02-07T06:37:10.884Z,4.17
2019-02-07T06:39:58.001Z,3.70
2019-02-07T06:42:40.847Z,3.15
2019-02-07T06:45:29.064Z,3.17
2019-02-07T06:48:36.334Z,3.10
2019-02-07T06:51:23.778Z,3.27
2019-02-07T06:54:21.623Z,4.07
2019-02-07T06:57:09.044Z,2.90
2019-02-07T07:00:09.916Z,4.77
2019-02-07T07:03:07.858Z,4.10
2019-02-07T07:05:55.679Z,4.27
2019-02-07T07:08:43.051Z,3.87
2019-02-07T07:11:47.002Z,3.80
2019-02-07T07:14:38.906Z,3.43
2019-02-07T07:17:25.774Z,3.20
2019-02-07T07:20:10.807Z,3.20
2019-02-07T07:23:14.860Z,2.77
2019-02-07T07:26:21.734Z,2.70
2019-02-07T07:29:19.415Z,3.13
2019-02-07T07:32:20.039Z,3.77
2019-02-07T07:35:13.339Z,3.17
2019-02-07T07:38:00.740Z,4.03
2019-02-07T07:40:55.449Z,3.60
2019-02-07T07:43:35.593Z,3.20
2019-02-07T07:46:39.578Z,3.20
2019-02-07T07:49:33.447Z,3.33
2019-02-07T07:52:25.099Z,3.70
2019-02-07T07:55:13.696Z,3.97
2019-02-07T07:57:55.157Z,3.57
2019-02-07T08:00:59.106Z,4.77
2019-02-07T08:03:46.350Z,3.63
2019-02-07T08:06:28.578Z,3.63
2019-02-07T08:09:11.190Z,3.60
2019-02-07T08:12:03.211Z,3.67
2019-02-07T08:15:00.934Z,3.67
2019-02-07T08:17:52.329Z,3.20
2019-02-07T08:20:35.866Z,3.07
2019-02-07T08:23:19.185Z,3.10
2019-02-07T08:26:10.669Z,3.30
2019-02-07T08:28:47.368Z,3.10
2019-02-07T08:31:34.678Z,3.33
2019-02-07T08:34:32.621Z,2.93
2019-02-07T08:37:19.746Z,4.20
2019-02-07T08:40:07.208Z,3.97
2019-02-07T08:43:14.383Z,5.93
2019-02-07T08:46:03.052Z,3.17
2019-02-07T08:48:51.591Z,2.65
2019-02-07T08:51:41.007Z,3.17
2019-02-07T08:54:28.267Z,3.70
2019-02-07T08:57:19.802Z,3.70
2019-02-07T09:00:11.838Z,3.70
2019-02-07T09:02:55.746Z,3.10
2019-02-07T09:05:52.093Z,2.70
2019-02-07T09:08:41.559Z,3.47
2019-02-07T09:11:30.182Z,3.00
2019-02-07T09:14:18.151Z,3.00
2019-02-07T09:17:06.727Z,3.57
2019-02-07T09:19:54.034Z,5.40
2019-02-07T09:22:41.407Z,3.53
2019-02-07T09:25:42.094Z,3.93
2019-02-07T09:28:22.420Z,3.50
2019-02-07T09:31:22.935Z,4.90
2019-02-07T09:34:23.127Z,3.63
2019-02-07T09:37:14.846Z,3.77
2019-02-07T09:40:06.572Z,3.03
2019-02-07T09:42:58.199Z,3.83
2019-02-07T09:45:46.797Z,3.63
2019-02-07T09:48:34.201Z,3.70
2019-02-07T09:51:23.432Z,3.10
2019-02-07T09:54:24.587Z,3.40
2019-02-07T09:57:25.083Z,3.47
2019-02-07T10:00:21.502Z,3.27
2019-02-07T10:03:00.501Z,2.77
2019-02-07T10:05:47.848Z,3.60
2019-02-07T10:08:39.229Z,2.33
2019-02-07T10:11:27.834Z,2.17
2019-02-07T10:14:16.435Z,2.70
2019-02-07T10:17:03.970Z,2.50
2019-02-07T10:19:50.423Z,2.30
2019-02-07T10:22:42.254Z,2.80
2019-02-07T10:25:29.419Z,2.30
2019-02-07T10:28:20.360Z,2.70
2019-02-07T10:31:07.524Z,3.17
2019-02-07T10:33:59.016Z,2.67
2019-02-07T10:36:38.306Z,2.52
2019-02-07T10:39:34.103Z,2.60
2019-02-07T10:42:41.327Z,2.17
2019-02-07T10:45:37.097Z,2.10
2019-02-07T10:48:43.962Z,2.93
2019-02-07T10:51:22.171Z,2.67
2019-02-07T10:54:13.694Z,2.93
2019-02-07T10:57:17.758Z,3.00
2019-02-07T11:00:07.082Z,2.60
2019-02-07T11:02:54.917Z,2.90
2019-02-07T11:05:42.277Z,3.00
2019-02-07T11:08:37.069Z,2.67
2019-02-07T11:11:24.262Z,3.10
2019-02-07T11:14:03.546Z,2.93
2019-02-07T11:16:50.856Z,3.60
2019-02-07T11:19:57.916Z,2.77
2019-02-07T11:22:45.453Z,2.83
2019-02-07T11:25:46.359Z,2.83
2019-02-07T11:28:46.999Z,2.33
2019-02-07T11:31:45.193Z,2.83
2019-02-07T11:34:36.168Z,3.33
2019-02-07T11:37:29.990Z,2.83
2019-02-07T11:40:24.579Z,2.57
2019-02-07T11:43:13.196Z,2.63
2019-02-07T11:46:11.150Z,2.50
2019-02-07T11:49:07.114Z,2.80
2019-02-07T11:51:54.731Z,3.17
2019-02-07T11:54:40.314Z,2.70
2019-02-07T11:57:28.762Z,3.00
2019-02-07T12:00:24.166Z,2.70
2019-02-07T12:03:18.663Z,2.93
2019-02-07T12:06:16.218Z,3.13
2019-02-07T12:09:14.179Z,3.00
2019-02-07T12:12:02.379Z,2.47
2019-02-07T12:14:46.785Z,2.42
2019-02-07T12:17:41.428Z,2.93
2019-02-07T12:20:22.742Z,2.77
2019-02-07T12:23:21.523Z,2.20
2019-02-07T12:26:25.390Z,2.83
2019-02-07T12:29:17.010Z,2.83
2019-02-07T12:32:12.942Z,2.70
2019-02-07T12:34:53.582Z,2.77
2019-02-07T12:37:47.143Z,3.00
2019-02-07T12:40:34.158Z,3.53
2019-02-07T12:43:28.548Z,2.30
2019-02-07T12:46:35.122Z,3.43
2019-02-07T12:49:28.887Z,2.80
2019-02-07T12:51:59.762Z,2.57
2019-02-07T12:55:00.494Z,2.77
2019-02-07T12:57:51.116Z,2.10
2019-02-07T13:00:48.855Z,2.33
2019-02-07T13:03:36.711Z,2.57
2019-02-07T13:06:24.122Z,2.27
2019-02-07T13:09:12.762Z,2.77
2019-02-07T13:12:04.151Z,2.53
2019-02-07T13:14:42.915Z,2.07
2019-02-07T13:17:52.122Z,2.33
2019-02-07T13:20:55.566Z,2.27
2019-02-07T13:23:42.577Z,2.80
2019-02-07T13:26:37.138Z,2.50
2019-02-07T13:29:34.687Z,2.50
2019-02-07T13:32:22.823Z,2.23
2019-02-07T13:35:27.761Z,2.57
2019-02-07T13:38:10.028Z,2.27
2019-02-07T13:40:58.779Z,2.70
2019-02-07T13:43:47.382Z,2.80
2019-02-07T13:46:26.378Z,2.53
2019-02-07T13:49:15.743Z,2.37
2019-02-07T13:52:05.062Z,2.60
2019-02-07T13:55:13.534Z,2.72
2019-02-07T13:57:52.827Z,2.80
2019-02-07T14:00:32.965Z,2.07
2019-02-07T14:03:12.750Z,2.23
2019-02-07T14:05:57.398Z,3.10
2019-02-07T14:08:46.295Z,1.87
2019-02-07T14:11:32.192Z,2.17
2019-02-07T14:14:24.994Z,3.03
2019-02-07T14:17:29.686Z,2.83
2019-02-07T14:20:22.946Z,2.67
2019-02-07T14:23:11.552Z,2.23
2019-02-07T14:25:59.426Z,2.73
2019-02-07T14:28:47.619Z,2.63
2019-02-07T14:31:30.441Z,2.40
2019-02-07T14:34:17.983Z,4.80
2019-02-07T14:37:13.167Z,2.27
2019-02-07T14:40:17.179Z,3.10
2019-02-07T14:43:15.132Z,4.23
2019-02-07T14:45:53.665Z,11.67
2019-02-07T14:48:27.098Z,2.83
2019-02-07T14:50:57.188Z,3.23
2019-02-07T14:53:26.795Z,4.00
2019-02-07T14:55:57.030Z,2.20
2019-02-07T14:58:27.576Z,2.40
2019-02-07T15:00:57.288Z,5.47
2019-02-07T15:03:27.279Z,4.70
2019-02-07T15:05:56.877Z,2.80
2019-02-07T15:08:26.477Z,2.93
2019-02-07T15:10:56.234Z,2.23
2019-02-07T15:13:26.587Z,3.60
2019-02-07T15:15:56.997Z,2.33
2019-02-07T15:18:26.884Z,2.80
2019-02-07T15:20:56.965Z,2.50
2019-02-07T15:23:26.579Z,3.07
2019-02-07T15:25:56.211Z,2.90
2019-02-07T15:28:25.957Z,2.67
2019-02-07T15:30:56.291Z,3.23
2019-02-07T15:33:26.680Z,3.13
2019-02-07T15:35:56.421Z,3.77
2019-02-07T15:38:25.998Z,3.17
2019-02-07T15:40:56.450Z,3.33
2019-02-07T15:43:26.164Z,4.60
2019-02-07T15:45:55.923Z,2.50
2019-02-07T15:48:25.565Z,2.77
2019-02-07T15:50:55.202Z,3.37
2019-02-07T15:53:24.799Z,2.97
2019-02-07T15:55:54.406Z,3.70
2019-02-07T15:58:46.615Z,2.67
2019-02-07T16:01:24.300Z,2.97
2019-02-07T16:03:58.882Z,2.80
2019-02-07T16:06:29.834Z,2.80
2019-02-07T16:08:59.845Z,2.63
2019-02-07T16:11:29.481Z,2.87
2019-02-07T16:13:59.495Z,3.07
2019-02-07T16:16:29.110Z,2.70
2019-02-07T16:18:58.714Z,3.70
2019-02-07T16:21:28.331Z,3.00
2019-02-07T16:23:58.333Z,3.13
2019-02-07T16:26:27.979Z,2.73
2019-02-07T16:28:57.551Z,2.80
2019-02-07T16:31:27.166Z,3.57
2019-02-07T16:33:56.779Z,4.40
2019-02-07T16:36:26.394Z,3.90
2019-02-07T16:38:56.687Z,3.10
2019-02-07T16:41:26.412Z,3.40
2019-02-07T16:43:56.768Z,3.13
2019-02-07T16:46:26.514Z,3.50
2019-02-07T16:48:56.176Z,2.73
2019-02-07T16:51:27.358Z,3.87
2019-02-07T16:53:56.927Z,2.83
2019-02-07T16:56:26.568Z,2.83
2019-02-07T16:58:56.179Z,3.63
2019-02-07T17:01:25.885Z,3.23
2019-02-07T17:03:55.517Z,2.80
2019-02-07T17:06:25.482Z,2.83
2019-02-07T17:08:55.078Z,4.00
2019-02-07T17:11:24.821Z,4.47
2019-02-07T17:13:54.395Z,3.43
2019-02-07T17:16:24.756Z,3.07
2019-02-07T17:18:54.467Z,3.93
2019-02-07T17:21:24.359Z,3.73
2019-02-07T17:23:54.637Z,4.90
2019-02-07T17:26:24.742Z,3.63
2019-02-07T17:28:55.003Z,4.00
2019-02-07T17:31:25.407Z,3.13
2019-02-07T17:33:55.127Z,3.67
2019-02-07T17:36:24.703Z,2.50
2019-02-07T17:38:54.304Z,3.10
2019-02-07T17:41:23.891Z,3.77
2019-02-07T17:43:53.496Z,2.57
2019-02-07T17:46:23.095Z,3.77
2019-02-07T17:48:52.745Z,3.50
2019-02-07T17:51:23.605Z,2.57
2019-02-07T17:53:53.260Z,3.47
2019-02-07T17:56:22.867Z,2.23
2019-02-07T17:58:52.452Z,2.50
2019-02-07T18:01:22.128Z,3.47
2019-02-07T18:03:51.942Z,2.87
2019-02-07T18:06:22.278Z,3.47
2019-02-07T18:08:52.639Z,2.57
2019-02-07T18:11:22.351Z,2.97
2019-02-07T18:13:51.942Z,2.97
2019-02-07T18:16:21.523Z,2.60
2019-02-07T18:18:51.315Z,3.00
2019-02-07T18:21:20.882Z,3.67
2019-02-07T18:23:50.471Z,2.90
2019-02-07T18:26:20.632Z,3.05
2019-02-07T18:28:50.223Z,3.57
2019-02-07T18:31:20.318Z,3.50
2019-02-07T18:33:50.607Z,3.17
2019-02-07T18:36:20.570Z,4.60
2019-02-07T18:38:50.201Z,2.77
2019-02-07T18:41:20.585Z,3.37
2019-02-07T18:43:50.180Z,2.73
2019-02-07T18:46:20.445Z,2.47
2019-02-07T18:48:50.270Z,3.40
2019-02-07T18:51:20.674Z,2.77
2019-02-07T18:53:50.357Z,3.27
2019-02-07T18:56:20.751Z,3.70
2019-02-07T18:58:50.392Z,5.40
2019-02-07T19:01:20.054Z,3.20
2019-02-07T19:03:49.850Z,3.50
2019-02-07T19:06:20.379Z,2.83
2019-02-07T19:08:50.060Z,3.60
2019-02-07T19:11:19.841Z,3.70
2019-02-07T19:13:50.180Z,3.40
2019-02-07T19:16:22.806Z,3.12
2019-02-07T19:18:52.438Z,3.13
2019-02-07T19:21:22.134Z,3.73
2019-02-07T19:23:51.727Z,3.10
2019-02-07T19:26:21.622Z,5.10
2019-02-07T19:28:51.252Z,4.17
2019-02-07T19:31:20.859Z,3.87
2019-02-07T19:33:50.470Z,3.40
2019-02-07T19:36:20.077Z,4.10
2019-02-07T19:38:49.695Z,4.87
2019-02-07T19:41:19.511Z,4.10
2019-02-07T19:43:49.139Z,3.50
2019-02-07T19:46:18.731Z,3.30
2019-02-07T19:48:48.325Z,3.87
2019-02-07T19:51:17.999Z,4.07
2019-02-07T19:53:48.250Z,5.43
2019-02-07T19:56:17.973Z,6.90
2019-02-07T19:58:47.580Z,4.67
2019-02-07T20:01:17.283Z,3.77
2019-02-07T20:03:46.919Z,3.60
2019-02-07T20:06:16.588Z,3.90
2019-02-07T20:08:46.217Z,4.77
2019-02-07T20:11:15.887Z,5.33
2019-02-07T20:13:45.479Z,4.73
2019-02-07T20:16:15.144Z,4.30
2019-02-07T20:18:44.886Z,4.20
2019-02-07T20:21:14.525Z,4.07
2019-02-07T20:23:47.236Z,4.57
2019-02-07T20:26:16.930Z,3.70
2019-02-07T20:28:46.535Z,3.87
2019-02-07T20:31:16.256Z,3.50
2019-02-07T20:33:46.135Z,3.63
2019-02-07T20:36:15.745Z,3.57
2019-02-07T20:38:45.359Z,3.10
2019-02-07T20:41:14.979Z,4.07
2019-02-07T20:43:44.592Z,3.20
2019-02-07T20:46:14.307Z,3.57
2019-02-07T20:48:43.920Z,3.10
2019-02-07T20:51:14.361Z,4.30
2019-02-07T20:53:44.125Z,3.80
2019-02-07T20:56:13.733Z,3.93
2019-02-07T20:58:43.701Z,4.37
2019-02-07T21:01:13.295Z,4.37
2019-02-07T21:03:43.316Z,4.40
2019-02-07T21:06:13.327Z,4.03
2019-02-07T21:08:42.929Z,3.17
2019-02-07T21:11:13.277Z,4.23
2019-02-07T21:13:43.006Z,4.10
2019-02-07T21:16:13.363Z,4.27
2019-02-07T21:18:43.235Z,3.73
2019-02-07T21:21:13.639Z,3.50
2019-02-07T21:23:43.222Z,4.50
2019-02-07T21:26:12.854Z,3.87
2019-02-07T21:28:42.443Z,3.97
2019-02-07T21:31:12.762Z,3.43
2019-02-07T21:33:42.475Z,2.55
2019-02-07T21:36:14.164Z,4.57
2019-02-07T21:38:43.863Z,4.47
2019-02-07T21:41:13.492Z,3.87
2019-02-07T21:43:43.111Z,3.50
2019-02-07T21:46:13.163Z,3.70
2019-02-07T21:48:43.694Z,2.80
2019-02-07T21:51:13.707Z,4.13
2019-02-07T21:53:43.353Z,3.83
2019-02-07T21:56:12.946Z,4.23
2019-02-07T21:58:43.209Z,3.47
2019-02-07T22:01:12.936Z,3.00
2019-02-07T22:03:43.209Z,3.37
2019-02-07T22:06:12.935Z,4.07
2019-02-07T22:08:42.530Z,3.40
2019-02-07T22:11:12.159Z,4.13
2019-02-07T22:13:41.774Z,3.53
2019-02-07T22:16:11.382Z,4.17
2019-02-07T22:18:40.980Z,3.77
2019-02-07T22:21:10.599Z,4.10
2019-02-07T22:23:40.229Z,3.73
2019-02-07T22:26:09.877Z,4.10
2019-02-07T22:28:40.168Z,3.37
2019-02-07T22:31:10.923Z,3.10
2019-02-07T22:33:41.291Z,3.63
2019-02-07T22:36:11.470Z,3.60
2019-02-07T22:38:41.075Z,4.03
2019-02-07T22:41:10.734Z,4.60
2019-02-07T22:43:41.985Z,4.43
2019-02-07T22:46:11.740Z,3.33
2019-02-07T22:48:42.058Z,3.93
2019-02-07T22:51:12.103Z,3.97
2019-02-07T22:53:41.754Z,3.93
2019-02-07T22:56:11.402Z,3.30
2019-02-07T22:58:40.961Z,3.90
2019-02-07T23:01:16.574Z,3.43
2019-02-07T23:03:47.291Z,2.93
2019-02-07T23:06:16.893Z,3.13
2019-02-07T23:08:46.460Z,3.17
2019-02-07T23:11:16.218Z,3.40
2019-02-07T23:13:45.850Z,3.23
2019-02-07T23:16:15.666Z,3.20
2019-02-07T23:18:45.853Z,3.00
2019-02-07T23:21:15.466Z,3.37
2019-02-07T23:23:45.070Z,3.60
2019-02-07T23:26:14.784Z,3.70
2019-02-07T23:28:44.410Z,2.53
2019-02-07T23:31:13.971Z,3.13
2019-02-07T23:33:44.414Z,3.13
2019-02-07T23:36:14.110Z,3.63
2019-02-07T23:38:43.756Z,3.83
2019-02-07T23:41:13.422Z,3.40
2019-02-07T23:43:46.062Z,2.97
2019-02-07T23:46:15.118Z,3.57
2019-02-07T23:48:45.185Z,3.83
2019-02-07T23:51:15.480Z,3.80
2019-02-07T23:53:45.162Z,3.53
2019-02-07T23:56:14.864Z,3.20
2019-02-07T23:58:44.485Z,5.07
